createdAt,value
2019-02-26T15:06:57.862Z,12.30
2019-02-26T15:09:35.054Z,12.10
2019-02-26T15:12:12.396Z,12.00
2019-02-26T15:14:50.209Z,11.90
2019-02-26T15:20:06.190Z,11.20
2019-02-26T15:22:43.632Z,11.00
2019-02-26T15:29:53.899Z,11.30
2019-02-26T15:32:35.311Z,11.30
2019-02-26T15:35:11.499Z,11.40
2019-02-26T15:37:48.795Z,11.50
2019-02-26T15:40:27.250Z,11.10
2019-02-26T15:45:42.405Z,11.00
2019-02-26T15:48:19.546Z,9.90
2019-02-26T15:50:57.099Z,9.30
2019-02-26T15:53:34.121Z,8.90
2019-02-26T15:56:11.664Z,8.60
2019-02-26T16:04:02.104Z,8.10
2019-02-26T16:11:52.744Z,7.50
2019-02-26T16:14:29.924Z,7.50
2019-02-26T16:19:45.321Z,7.00
2019-02-26T16:24:58.974Z,6.80
2019-02-26T16:27:37.782Z,6.70
2019-02-26T16:30:20.322Z,6.60
2019-02-26T16:32:57.325Z,6.50
2019-02-26T16:38:11.758Z,6.60
2019-02-26T16:47:48.785Z,6.20
2019-02-26T16:50:25.548Z,6.20
2019-02-26T16:53:05.633Z,5.60
2019-02-26T16:55:55.210Z,5.80
2019-02-26T16:58:35.227Z,5.70
2019-02-26T17:01:11.639Z,5.90
2019-02-26T17:03:49.091Z,5.50
2019-02-26T17:06:26.572Z,5.80
2019-02-26T17:09:04.094Z,5.80
2019-02-26T17:11:44.554Z,5.70
2019-02-26T17:14:23.209Z,5.60
2019-02-26T17:17:03.927Z,5.90
2019-02-26T17:19:42.821Z,5.40
2019-02-26T17:22:28.525Z,5.70
2019-02-26T17:25:22.105Z,5.60
2019-02-26T17:27:59.835Z,5.50
2019-02-26T17:30:37.999Z,5.40
2019-02-26T17:33:18.658Z,5.30
2019-02-26T17:35:56.164Z,5.20
2019-02-26T17:38:33.198Z,5.10
2019-02-26T17:43:50.362Z,4.90
2019-02-26T17:46:27.687Z,4.90
2019-02-26T17:49:04.936Z,4.80
2019-02-26T17:51:44.202Z,4.80
2019-02-26T17:54:21.558Z,4.60
2019-02-26T17:57:00.351Z,4.80
2019-02-26T18:04:51.641Z,4.70
2019-02-26T18:07:30.049Z,4.70
2019-02-26T18:10:12.553Z,4.20
2019-02-26T18:15:27.170Z,4.60
2019-02-26T18:18:04.523Z,4.30
2019-02-26T18:20:41.754Z,4.40
2019-02-26T18:23:19.158Z,4.00
2019-02-26T18:25:57.369Z,4.30
2019-02-26T18:28:36.812Z,4.00
2019-02-26T18:31:14.521Z,4.20
2019-02-26T18:36:28.441Z,4.10
2019-02-26T18:39:07.975Z,3.80
2019-02-26T18:41:50.736Z,3.80
2019-02-26T18:44:24.957Z,3.80
2019-02-26T18:49:39.619Z,3.80
2019-02-26T18:52:16.874Z,4.00
2019-02-26T18:54:55.101Z,3.60
2019-02-26T18:57:34.279Z,3.70
2019-02-26T19:00:14.089Z,3.90
2019-02-26T19:02:51.993Z,3.60
2019-02-26T19:05:28.904Z,3.60
2019-02-26T19:08:06.550Z,3.60
2019-02-26T19:10:45.418Z,3.30
2019-02-26T19:13:23.041Z,3.60
2019-02-26T19:16:01.882Z,3.50
2019-02-26T19:18:39.501Z,3.30
2019-02-26T19:23:54.153Z,3.40
2019-02-26T19:26:31.735Z,3.20
2019-02-26T19:29:10.111Z,3.30
2019-02-26T19:31:47.713Z,3.30
2019-02-26T19:37:03.295Z,3.30
2019-02-26T19:39:40.736Z,3.20
2019-02-26T19:42:21.108Z,3.20
2019-02-26T19:45:00.061Z,3.30
2019-02-26T19:47:38.732Z,3.40
2019-02-26T19:53:01.748Z,3.30
2019-02-26T19:58:15.586Z,3.30
2019-02-26T20:03:39.578Z,3.50
2019-02-26T20:06:10.618Z,3.10
2019-02-26T20:12:02.621Z,3.10
2019-02-26T20:14:40.628Z,3.30
2019-02-26T20:22:16.486Z,3.20
2019-02-26T20:24:54.988Z,3.10
2019-02-26T20:27:32.260Z,3.10
2019-02-26T20:30:12.360Z,2.80
2019-02-26T20:32:50.994Z,2.90
2019-02-26T20:35:28.237Z,3.00
2019-02-26T20:38:06.675Z,3.00
2019-02-26T20:40:48.920Z,2.90
2019-02-26T20:43:28.210Z,3.20
2019-02-26T20:46:05.720Z,3.10
2019-02-26T20:48:44.162Z,2.60
2019-02-26T20:51:26.846Z,2.70
2019-02-26T20:54:01.711Z,3.10
2019-02-26T20:56:39.897Z,3.10
2019-02-26T20:59:18.505Z,2.80
2019-02-26T21:01:56.776Z,2.80
2019-02-26T21:04:36.230Z,2.80
2019-02-26T21:07:13.916Z,2.80
2019-02-26T21:09:52.291Z,3.00
2019-02-26T21:12:30.055Z,2.90
2019-02-26T21:15:13.920Z,2.90
2019-02-26T21:17:51.334Z,2.70
2019-02-26T21:20:27.597Z,2.70
2019-02-26T21:23:06.522Z,2.70
2019-02-26T21:25:45.535Z,2.80
2019-02-26T21:28:28.574Z,2.80
2019-02-26T21:31:09.313Z,3.00
2019-02-26T21:33:46.884Z,2.80
2019-02-26T21:36:27.801Z,2.80
2019-02-26T21:39:03.204Z,3.00
2019-02-26T21:41:42.236Z,2.60
2019-02-26T21:44:22.373Z,3.20
2019-02-26T21:46:59.930Z,3.00
2019-02-26T21:49:49.318Z,2.80
2019-02-26T21:52:26.819Z,3.10
2019-02-26T21:55:04.437Z,3.10
2019-02-26T21:57:43.336Z,3.00
2019-02-26T22:00:21.900Z,2.90
2019-02-26T22:03:00.601Z,2.80
2019-02-26T22:05:38.672Z,3.10
2019-02-26T22:10:53.832Z,2.70
2019-02-26T22:13:43.036Z,2.70
2019-02-26T22:16:21.326Z,2.50
2019-02-26T22:18:59.101Z,2.50
2019-02-26T22:21:36.898Z,2.40
2019-02-26T22:24:14.666Z,3.60
2019-02-26T22:26:53.946Z,2.70
2019-02-26T22:29:31.568Z,2.30
2019-02-26T22:32:09.498Z,2.30
2019-02-26T22:34:58.706Z,2.30
2019-02-26T22:37:36.353Z,2.40
2019-02-26T22:40:14.424Z,2.60
2019-02-26T22:42:52.698Z,2.60
2019-02-26T22:45:30.640Z,2.30
2019-02-26T22:48:08.709Z,2.10
2019-02-26T22:50:46.808Z,2.60
2019-02-26T22:53:24.649Z,2.60
2019-02-26T22:56:02.507Z,2.30
2019-02-26T22:58:40.693Z,2.40
2019-02-26T23:01:41.555Z,2.40
2019-02-26T23:04:20.452Z,2.20
2019-02-26T23:06:58.831Z,2.20
2019-02-26T23:09:38.133Z,2.20
2019-02-26T23:12:20.405Z,2.20
2019-02-26T23:14:58.897Z,2.20
2019-02-26T23:17:37.283Z,2.10
2019-02-26T23:20:23.829Z,2.30
2019-02-26T23:23:13.447Z,2.30
2019-02-26T23:28:28.983Z,2.20
2019-02-26T23:31:09.990Z,2.50
2019-02-26T23:34:07.309Z,2.60
2019-02-26T23:39:40.946Z,2.50
2019-02-26T23:42:20.473Z,2.60
2019-02-26T23:44:58.969Z,2.80
2019-02-26T23:50:33.820Z,2.80
2019-02-26T23:56:42.792Z,3.10
2019-02-26T23:59:34.792Z,2.90
